createdAt,value
2022-10-25T00:00:49.615Z,13.10
2022-10-25T00:03:16.122Z,13.12
2022-10-25T00:05:42.584Z,13.10
2022-10-25T00:08:09.460Z,13.13
2022-10-25T00:10:36.869Z,13.08
2022-10-25T00:13:03.315Z,13.06
2022-10-25T00:15:29.770Z,13.07
2022-10-25T00:17:56.178Z,13.07
2022-10-25T00:20:23.841Z,13.08
2022-10-25T00:22:50.210Z,13.07
2022-10-25T00:25:16.746Z,13.03
2022-10-25T00:27:43.150Z,13.01
2022-10-25T00:30:10.302Z,12.96
2022-10-25T00:32:36.802Z,12.94
2022-10-25T00:35:03.481Z,12.92
2022-10-25T00:37:30.262Z,12.89
2022-10-25T00:39:56.686Z,12.86
2022-10-25T00:42:25.766Z,12.85
2022-10-25T00:44:58.013Z,12.80
2022-10-25T00:47:50.696Z,12.76
2022-10-25T00:50:22.910Z,12.75
2022-10-25T00:52:53.389Z,12.73
2022-10-25T00:55:22.211Z,12.71
2022-10-25T00:57:59.650Z,12.69
2022-10-25T01:00:26.133Z,12.68
2022-10-25T01:02:53.618Z,12.71
2022-10-25T01:05:20.891Z,12.72
2022-10-25T01:07:47.971Z,12.71
2022-10-25T01:10:15.228Z,12.73
2022-10-25T01:12:41.662Z,12.73
2022-10-25T01:15:08.901Z,12.72
2022-10-25T01:18:07.649Z,12.72
2022-10-25T01:20:52.543Z,12.74
2022-10-25T01:23:38.853Z,12.75
2022-10-25T01:26:26.529Z,12.78
2022-10-25T01:29:12.786Z,12.77
2022-10-25T01:31:55.252Z,12.75
2022-10-25T01:34:50.438Z,12.72
2022-10-25T01:37:25.882Z,12.71
2022-10-25T01:40:16.699Z,12.68
2022-10-25T01:43:02.445Z,12.63
2022-10-25T01:45:34.962Z,12.60
2022-10-25T01:48:08.725Z,12.56
2022-10-25T01:50:39.566Z,12.55
2022-10-25T01:53:05.940Z,12.56
2022-10-25T01:55:43.293Z,12.58
2022-10-25T01:58:37.142Z,12.61
2022-10-25T02:01:22.610Z,12.63
2022-10-25T02:04:07.033Z,12.69
2022-10-25T02:06:39.210Z,12.72
2022-10-25T02:09:14.279Z,12.74
2022-10-25T02:11:40.759Z,12.73
2022-10-25T02:14:16.224Z,12.76
2022-10-25T02:16:49.255Z,12.78
2022-10-25T02:19:21.585Z,12.81
2022-10-25T02:21:49.145Z,12.81
2022-10-25T02:24:18.830Z,12.86
2022-10-25T02:29:20.293Z,12.91
2022-10-25T02:31:46.902Z,12.90
2022-10-25T02:34:13.373Z,12.91
2022-10-25T02:36:39.994Z,12.84
2022-10-25T02:39:07.393Z,12.82
2022-10-25T02:41:34.354Z,12.79
2022-10-25T02:44:00.771Z,12.77
2022-10-25T02:46:27.213Z,12.75
2022-10-25T02:48:53.634Z,12.76
2022-10-25T02:51:20.180Z,12.76
2022-10-25T02:53:46.986Z,12.79
2022-10-25T02:56:20.290Z,12.79
2022-10-25T02:58:48.697Z,12.78
2022-10-25T03:01:16.324Z,12.76
2022-10-25T03:03:43.238Z,12.75
2022-10-25T03:06:10.651Z,12.75
2022-10-25T03:08:38.573Z,12.77
2022-10-25T03:11:06.133Z,12.78
2022-10-25T03:13:32.765Z,12.77
2022-10-25T03:15:59.645Z,12.75
2022-10-25T03:18:26.144Z,12.77
2022-10-25T03:20:52.624Z,12.78
2022-10-25T03:23:19.016Z,12.79
2022-10-25T03:25:45.492Z,12.79
2022-10-25T03:28:11.951Z,12.78
2022-10-25T03:30:38.386Z,12.78
2022-10-25T03:33:04.852Z,12.76
2022-10-25T03:35:31.291Z,12.76
2022-10-25T03:37:57.683Z,12.78
2022-10-25T03:40:24.185Z,12.80
2022-10-25T03:42:50.615Z,12.82
2022-10-25T03:45:17.302Z,12.81
2022-10-25T03:47:43.766Z,12.78
2022-10-25T03:50:10.280Z,12.77
2022-10-25T03:52:36.689Z,12.75
2022-10-25T03:55:03.650Z,12.71
2022-10-25T03:57:30.949Z,12.70
2022-10-25T03:59:57.871Z,12.69
2022-10-25T04:02:24.294Z,12.66
2022-10-25T04:04:50.707Z,12.64
2022-10-25T04:07:17.650Z,12.62
2022-10-25T04:09:44.153Z,12.59
2022-10-25T04:12:10.529Z,12.58
2022-10-25T04:14:37.104Z,12.58
2022-10-25T04:17:03.718Z,12.57
2022-10-25T04:19:30.130Z,12.56
2022-10-25T04:21:56.977Z,12.56
2022-10-25T04:24:23.421Z,12.53
2022-10-25T04:26:49.843Z,12.52
2022-10-25T04:29:17.383Z,12.49
2022-10-25T04:31:43.818Z,12.47
2022-10-25T04:34:10.231Z,12.45
2022-10-25T04:36:36.682Z,12.46
2022-10-25T04:39:03.176Z,12.45
2022-10-25T04:41:29.576Z,12.44
2022-10-25T04:43:56.013Z,12.42
2022-10-25T04:46:22.548Z,12.43
2022-10-25T04:48:49.287Z,12.44
2022-10-25T04:51:15.941Z,12.43
2022-10-25T04:53:42.493Z,12.41
2022-10-25T04:56:14.328Z,12.42
2022-10-25T04:58:41.178Z,12.40
2022-10-25T05:01:13.300Z,12.41
2022-10-25T05:03:40.494Z,12.35
2022-10-25T05:06:11.261Z,12.35
2022-10-25T05:08:42.875Z,12.31
2022-10-25T05:11:11.065Z,12.26
2022-10-25T05:13:39.533Z,12.19
2022-10-25T05:16:06.903Z,12.17
2022-10-25T05:18:34.757Z,12.16
2022-10-25T05:21:05.576Z,12.18
2022-10-25T05:23:34.092Z,12.17
2022-10-25T05:26:21.460Z,12.11
2022-10-25T05:28:49.842Z,12.09
2022-10-25T05:31:27.667Z,12.07
2022-10-25T05:33:57.556Z,12.05
2022-10-25T05:36:24.247Z,12.03
2022-10-25T05:38:51.079Z,12.03
2022-10-25T05:41:18.694Z,12.03
2022-10-25T05:43:45.971Z,12.08
2022-10-25T05:46:18.381Z,12.07
2022-10-25T05:48:48.780Z,12.06
2022-10-25T05:51:33.239Z,12.06
2022-10-25T05:54:02.668Z,12.06
2022-10-25T05:56:31.164Z,12.07
2022-10-25T05:58:58.201Z,12.10
2022-10-25T06:01:26.769Z,12.14
2022-10-25T06:03:55.347Z,12.16
2022-10-25T06:06:22.345Z,12.17
2022-10-25T06:08:48.844Z,12.17
2022-10-25T06:11:18.777Z,12.17
2022-10-25T06:13:45.672Z,12.18
2022-10-25T06:16:15.392Z,12.19
2022-10-25T06:18:42.094Z,12.20
2022-10-25T06:21:20.610Z,12.24
2022-10-25T06:23:47.950Z,12.25
2022-10-25T06:26:17.984Z,12.28
2022-10-25T06:28:44.601Z,12.32
2022-10-25T06:31:14.087Z,12.37
2022-10-25T06:33:41.148Z,12.39
2022-10-25T06:36:13.220Z,12.42
2022-10-25T06:38:39.811Z,12.45
2022-10-25T06:41:09.909Z,12.49
2022-10-25T06:43:36.423Z,12.50
2022-10-25T06:46:07.348Z,12.56
2022-10-25T06:48:34.703Z,12.60
2022-10-25T06:51:05.385Z,12.62
2022-10-25T06:53:32.803Z,12.65
2022-10-25T06:56:04.583Z,12.69
2022-10-25T06:58:33.648Z,12.70
2022-10-25T07:01:04.672Z,12.74
2022-10-25T07:03:35.296Z,12.79
2022-10-25T07:06:13.657Z,12.85
2022-10-25T07:08:43.150Z,12.88
2022-10-25T07:11:15.217Z,12.94
2022-10-25T07:13:41.918Z,12.96
2022-10-25T07:16:10.258Z,13.00
2022-10-25T07:18:37.327Z,13.03
2022-10-25T07:21:10.789Z,13.06
2022-10-25T07:23:46.352Z,13.08
2022-10-25T07:26:16.984Z,13.09
2022-10-25T07:28:45.245Z,13.13
2022-10-25T07:31:13.735Z,13.15
2022-10-25T07:33:40.256Z,13.19
2022-10-25T07:36:11.138Z,13.23
2022-10-25T07:38:38.247Z,13.25
2022-10-25T07:41:05.494Z,13.30
2022-10-25T07:43:31.954Z,13.34
2022-10-25T07:45:58.470Z,13.40
2022-10-25T07:48:24.929Z,13.48
2022-10-25T07:50:51.336Z,13.54
2022-10-25T07:53:18.508Z,13.62
2022-10-25T07:55:52.289Z,13.69
2022-10-25T07:58:19.383Z,13.78
2022-10-25T08:00:45.985Z,13.86
2022-10-25T08:03:13.963Z,13.95
2022-10-25T08:05:40.703Z,14.05
2022-10-25T08:08:07.104Z,14.14
2022-10-25T08:10:33.480Z,14.23
2022-10-25T08:12:59.928Z,14.31
2022-10-25T08:15:26.366Z,14.38
2022-10-25T08:18:00.318Z,14.46
2022-10-25T08:20:43.413Z,14.53
2022-10-25T08:23:14.076Z,14.60
2022-10-25T08:25:40.712Z,14.66
2022-10-25T08:28:07.219Z,14.71
2022-10-25T08:30:33.657Z,14.77
2022-10-25T08:33:00.097Z,14.83
2022-10-25T08:35:26.755Z,14.87
2022-10-25T08:37:53.190Z,14.92
2022-10-25T08:40:36.961Z,14.98
2022-10-25T08:43:36.289Z,15.07
2022-10-25T08:46:09.756Z,15.17
2022-10-25T08:48:43.197Z,15.28
2022-10-25T08:51:25.714Z,15.37
2022-10-25T08:53:55.908Z,15.49
2022-10-25T08:56:24.377Z,15.61
2022-10-25T08:58:55.045Z,15.73
2022-10-25T09:01:44.850Z,15.83
2022-10-25T09:04:11.304Z,15.91
2022-10-25T09:06:50.281Z,16.00
2022-10-25T09:09:31.304Z,16.12
2022-10-25T09:12:16.645Z,16.18
2022-10-25T09:15:09.197Z,16.24
2022-10-25T09:17:42.183Z,16.30
2022-10-25T09:20:20.950Z,16.34
2022-10-25T09:22:49.635Z,16.44
2022-10-25T09:25:47.641Z,16.41
2022-10-25T09:28:21.309Z,16.47
2022-10-25T09:30:49.680Z,16.55
2022-10-25T09:33:22.109Z,16.60
2022-10-25T09:35:53.531Z,16.63
2022-10-25T09:38:38.947Z,16.63
2022-10-25T09:41:17.644Z,16.63
2022-10-25T09:43:54.997Z,16.61
2022-10-25T09:46:36.736Z,16.57
2022-10-25T09:49:10.509Z,16.70
2022-10-25T09:51:50.382Z,16.75
2022-10-25T09:54:30.132Z,16.74
2022-10-25T09:56:56.666Z,16.73
2022-10-25T09:59:23.089Z,16.73
2022-10-25T10:01:49.595Z,16.82
2022-10-25T10:04:26.248Z,16.80
2022-10-25T10:06:58.866Z,16.81
2022-10-25T10:09:29.567Z,16.83
2022-10-25T10:11:59.132Z,16.85
2022-10-25T10:14:40.313Z,16.86
2022-10-25T10:17:13.935Z,16.91
2022-10-25T10:19:41.379Z,16.92
2022-10-25T10:22:14.260Z,16.99
2022-10-25T10:24:47.493Z,17.08
2022-10-25T10:27:25.805Z,17.15
2022-10-25T10:29:57.843Z,17.25
2022-10-25T10:32:34.494Z,17.25
2022-10-25T10:35:03.873Z,17.31
2022-10-25T10:37:31.798Z,17.35
2022-10-25T10:40:01.185Z,17.37
2022-10-25T10:45:09.214Z,17.47
2022-10-25T10:47:39.970Z,17.51
2022-10-25T10:50:20.340Z,17.56
2022-10-25T10:53:08.959Z,17.60
2022-10-25T10:55:38.317Z,17.62
2022-10-25T10:58:16.422Z,17.62
2022-10-25T11:01:01.130Z,17.56
2022-10-25T11:04:00.114Z,17.50
2022-10-25T11:06:32.414Z,17.55
2022-10-25T11:09:17.867Z,17.59
2022-10-25T11:11:45.550Z,17.56
2022-10-25T11:14:16.715Z,17.60
2022-10-25T11:17:02.133Z,17.64
2022-10-25T11:20:12.387Z,17.77
2022-10-25T11:22:56.025Z,17.86
2022-10-25T11:25:29.427Z,17.94
2022-10-25T11:28:24.026Z,17.95
2022-10-25T11:31:17.005Z,17.94
2022-10-25T11:33:47.857Z,17.92
2022-10-25T11:36:14.265Z,18.01
2022-10-25T11:38:52.827Z,17.98
2022-10-25T11:41:28.281Z,18.10
2022-10-25T11:43:57.701Z,18.14
2022-10-25T11:46:42.585Z,18.09
2022-10-25T11:49:32.368Z,18.05
2022-10-25T11:52:40.505Z,17.90
2022-10-25T11:55:15.602Z,17.84
2022-10-25T11:58:07.154Z,17.84
2022-10-25T12:00:55.205Z,17.85
2022-10-25T12:03:54.513Z,17.89
2022-10-25T12:07:08.928Z,17.98
2022-10-25T12:09:50.582Z,18.07
2022-10-25T12:12:22.731Z,18.18
2022-10-25T12:14:54.413Z,18.22
2022-10-25T12:17:30.924Z,18.22
2022-10-25T12:20:01.517Z,18.34
2022-10-25T12:22:36.841Z,18.41
2022-10-25T12:25:16.710Z,18.49
2022-10-25T12:27:46.864Z,18.69
2022-10-25T12:30:18.385Z,18.83
2022-10-25T12:33:15.378Z,18.76
2022-10-25T12:35:54.607Z,18.92
2022-10-25T12:38:31.523Z,19.23
2022-10-25T12:41:02.777Z,19.20
2022-10-25T12:43:45.074Z,19.19
2022-10-25T12:46:49.075Z,19.54
2022-10-25T12:49:53.994Z,19.60
2022-10-25T12:52:34.450Z,19.87
2022-10-25T12:55:17.710Z,19.95
2022-10-25T12:57:57.818Z,19.80
2022-10-25T13:00:24.654Z,19.68
2022-10-25T13:03:10.316Z,19.68
2022-10-25T13:05:53.193Z,19.62
2022-10-25T13:08:22.285Z,19.52
2022-10-25T13:10:58.000Z,19.53
2022-10-25T13:13:49.009Z,19.62
2022-10-25T13:16:30.745Z,19.93
2022-10-25T13:19:35.989Z,20.50
2022-10-25T13:22:41.946Z,20.96
2022-10-25T13:25:08.259Z,21.07
2022-10-25T13:27:36.451Z,21.12
2022-10-25T13:33:16.241Z,21.49
2022-10-25T13:35:48.783Z,21.53
2022-10-25T13:38:27.445Z,21.61
2022-10-25T13:41:19.566Z,21.13
2022-10-25T13:43:59.575Z,21.03
2022-10-25T13:46:41.059Z,20.84
2022-10-25T13:49:28.833Z,20.76
2022-10-25T13:51:57.694Z,20.86
2022-10-25T13:54:24.635Z,21.17
2022-10-25T13:56:53.548Z,21.48
2022-10-25T13:59:46.208Z,21.63
2022-10-25T14:02:18.983Z,21.83
2022-10-25T14:04:45.618Z,21.90
2022-10-25T14:07:43.381Z,22.01
2022-10-25T14:12:50.276Z,22.29
2022-10-25T14:15:29.879Z,22.35
2022-10-25T14:17:58.211Z,22.30
2022-10-25T14:20:32.716Z,22.12
2022-10-25T14:23:02.987Z,22.18
2022-10-25T14:25:41.490Z,22.08
2022-10-25T14:28:16.423Z,22.01
2022-10-25T14:30:54.643Z,22.22
2022-10-25T14:33:39.433Z,22.03
2022-10-25T14:36:10.146Z,21.74
2022-10-25T14:38:52.575Z,21.68
2022-10-25T14:41:26.118Z,21.60
2022-10-25T14:43:53.223Z,21.59
2022-10-25T14:46:24.242Z,21.60
2022-10-25T14:48:54.954Z,21.52
2022-10-25T14:51:32.149Z,21.76
2022-10-25T14:54:04.740Z,21.84
2022-10-25T14:56:33.844Z,21.87
2022-10-25T14:59:01.584Z,21.76
2022-10-25T15:01:28.615Z,21.84
2022-10-25T15:03:58.085Z,21.95
2022-10-25T15:06:28.205Z,21.84
2022-10-25T15:09:16.136Z,21.94
2022-10-25T15:12:04.127Z,22.02
2022-10-25T15:14:31.108Z,22.00
2022-10-25T15:17:05.749Z,22.02
2022-10-25T15:19:32.916Z,22.03
2022-10-25T15:22:10.175Z,21.89
2022-10-25T15:24:45.009Z,21.85
2022-10-25T15:27:26.906Z,21.92
2022-10-25T15:29:53.833Z,21.88
2022-10-25T15:32:27.500Z,21.81
2022-10-25T15:34:57.062Z,21.60
2022-10-25T15:37:25.184Z,21.45
2022-10-25T15:39:53.314Z,21.25
2022-10-25T15:42:20.962Z,20.97
2022-10-25T15:44:47.413Z,20.69
2022-10-25T15:47:28.899Z,20.46
2022-10-25T15:49:55.703Z,20.12
2022-10-25T15:52:22.391Z,19.92
2022-10-25T15:54:49.331Z,19.74
2022-10-25T15:57:16.647Z,19.55
2022-10-25T15:59:43.389Z,19.40
2022-10-25T16:02:18.946Z,19.20
2022-10-25T16:04:46.121Z,19.02
2022-10-25T16:07:13.268Z,18.85
2022-10-25T16:09:40.195Z,18.71
2022-10-25T16:12:09.421Z,18.57
2022-10-25T16:14:36.843Z,18.43
2022-10-25T16:17:03.405Z,18.34
2022-10-25T16:19:31.547Z,18.21
2022-10-25T16:21:59.010Z,18.08
2022-10-25T16:24:25.553Z,17.96
2022-10-25T16:26:52.708Z,17.86
2022-10-25T16:29:22.341Z,17.76
2022-10-25T16:31:48.759Z,17.61
2022-10-25T16:34:17.320Z,17.44
2022-10-25T16:36:44.447Z,17.24
2022-10-25T16:39:11.496Z,17.10
2022-10-25T16:41:43.606Z,16.94
2022-10-25T16:44:15.713Z,16.78
2022-10-25T16:46:42.425Z,16.62
2022-10-25T16:49:09.489Z,16.51
2022-10-25T16:51:36.537Z,16.31
2022-10-25T16:54:03.718Z,16.21
2022-10-25T16:56:30.208Z,16.07
2022-10-25T16:58:56.651Z,15.94
2022-10-25T17:01:26.949Z,15.83
2022-10-25T17:03:54.324Z,15.72
2022-10-25T17:06:40.131Z,15.61
2022-10-25T17:09:07.484Z,15.49
2022-10-25T17:11:33.928Z,15.43
2022-10-25T17:14:00.338Z,15.33
2022-10-25T17:16:26.777Z,15.24
2022-10-25T17:18:53.157Z,15.19
2022-10-25T17:21:19.689Z,15.10
2022-10-25T17:23:46.078Z,15.02
2022-10-25T17:26:12.656Z,14.95
2022-10-25T17:28:43.128Z,14.87
2022-10-25T17:31:13.275Z,14.81
2022-10-25T17:33:40.604Z,14.73
2022-10-25T17:36:09.700Z,14.66
2022-10-25T17:38:36.545Z,14.60
2022-10-25T17:41:03.117Z,14.54
2022-10-25T17:43:29.602Z,14.47
2022-10-25T17:46:04.300Z,14.41
2022-10-25T17:48:31.135Z,14.36
2022-10-25T17:51:06.258Z,14.33
2022-10-25T17:53:33.177Z,14.25
2022-10-25T17:56:16.967Z,14.17
2022-10-25T17:58:45.432Z,14.10
2022-10-25T18:01:13.923Z,14.06
2022-10-25T18:03:40.407Z,14.02
2022-10-25T18:06:10.041Z,13.97
2022-10-25T18:08:37.004Z,13.92
2022-10-25T18:11:11.734Z,13.90
2022-10-25T18:13:40.512Z,13.87
2022-10-25T18:16:08.790Z,13.86
2022-10-25T18:18:35.193Z,13.83
2022-10-25T18:21:06.645Z,13.80
2022-10-25T18:23:33.590Z,13.76
2022-10-25T18:26:00.332Z,13.73
2022-10-25T18:28:26.882Z,13.67
2022-10-25T18:31:00.027Z,13.64
2022-10-25T18:33:29.860Z,13.59
2022-10-25T18:35:58.307Z,13.54
2022-10-25T18:38:25.036Z,13.49
2022-10-25T18:40:51.548Z,13.45
2022-10-25T18:43:17.952Z,13.43
2022-10-25T18:45:44.679Z,13.38
2022-10-25T18:48:11.668Z,13.34
2022-10-25T18:50:40.488Z,13.32
2022-10-25T18:53:09.051Z,13.28
2022-10-25T18:55:35.465Z,13.24
2022-10-25T18:58:01.850Z,13.19
2022-10-25T19:00:31.173Z,13.12
2022-10-25T19:02:57.777Z,13.05
2022-10-25T19:05:28.504Z,13.02
2022-10-25T19:07:56.088Z,13.00
2022-10-25T19:10:23.369Z,13.00
2022-10-25T19:12:51.238Z,12.99
2022-10-25T19:15:17.776Z,12.97
2022-10-25T19:17:44.134Z,12.98
2022-10-25T19:20:10.667Z,12.96
2022-10-25T19:22:37.034Z,12.94
2022-10-25T19:25:03.610Z,12.91
2022-10-25T19:27:30.419Z,12.88
2022-10-25T19:29:57.742Z,12.86
2022-10-25T19:32:24.230Z,12.84
2022-10-25T19:37:22.332Z,12.82
2022-10-25T19:39:49.069Z,12.82
2022-10-25T19:42:15.503Z,12.83
2022-10-25T19:44:41.879Z,12.83
2022-10-25T19:47:08.757Z,12.80
2022-10-25T19:49:35.193Z,12.74
2022-10-25T19:52:01.592Z,12.72
2022-10-25T19:54:28.143Z,12.71
2022-10-25T19:56:55.388Z,12.70
2022-10-25T19:59:21.776Z,12.67
2022-10-25T20:01:49.160Z,12.66
2022-10-25T20:04:15.666Z,12.64
2022-10-25T20:06:42.179Z,12.64
2022-10-25T20:09:10.052Z,12.61
2022-10-25T20:11:36.489Z,12.57
2022-10-25T20:14:03.753Z,12.53
2022-10-25T20:16:31.192Z,12.53
2022-10-25T20:19:00.790Z,12.54
2022-10-25T20:21:32.187Z,12.53
2022-10-25T20:24:01.037Z,12.49
2022-10-25T20:26:36.426Z,12.47
2022-10-25T20:29:06.319Z,12.44
2022-10-25T20:31:34.548Z,12.43
2022-10-25T20:34:03.548Z,12.41
2022-10-25T20:36:32.090Z,12.38
2022-10-25T20:38:58.462Z,12.34
2022-10-25T20:41:27.367Z,12.31
2022-10-25T20:43:56.602Z,12.30
2022-10-25T20:46:24.452Z,12.27
2022-10-25T20:48:51.224Z,12.25
2022-10-25T20:51:17.970Z,12.25
2022-10-25T20:53:45.788Z,12.23
2022-10-25T20:56:13.162Z,12.19
2022-10-25T20:58:39.660Z,12.17
2022-10-25T21:01:06.336Z,12.16
2022-10-25T21:03:33.152Z,12.15
2022-10-25T21:06:03.297Z,12.14
2022-10-25T21:08:29.833Z,12.12
2022-10-25T21:11:02.279Z,12.12
2022-10-25T21:13:33.778Z,12.11
2022-10-25T21:16:14.371Z,12.08
2022-10-25T21:18:42.024Z,12.07
2022-10-25T21:21:19.969Z,12.05
2022-10-25T21:23:47.279Z,12.02
2022-10-25T21:26:13.834Z,12.00
2022-10-25T21:28:41.265Z,12.00
2022-10-25T21:31:10.840Z,11.99
2022-10-25T21:33:37.706Z,11.97
2022-10-25T21:36:12.867Z,11.95
2022-10-25T21:38:39.542Z,11.93
2022-10-25T21:41:20.699Z,11.91
2022-10-25T21:43:48.811Z,11.89
2022-10-25T21:46:17.092Z,11.90
2022-10-25T21:48:43.922Z,11.89
2022-10-25T21:51:10.550Z,11.90
2022-10-25T21:53:36.991Z,11.90
2022-10-25T21:56:04.342Z,11.89
2022-10-25T21:58:30.779Z,11.88
2022-10-25T22:00:58.852Z,11.87
2022-10-25T22:03:31.595Z,11.85
2022-10-25T22:05:58.147Z,11.84
2022-10-25T22:08:24.868Z,11.84
2022-10-25T22:11:01.901Z,11.83
2022-10-25T22:13:28.636Z,11.81
2022-10-25T22:16:04.623Z,11.82
2022-10-25T22:18:31.587Z,11.82
2022-10-25T22:21:00.890Z,11.83
2022-10-25T22:23:29.442Z,11.84
2022-10-25T22:26:01.419Z,11.86
2022-10-25T22:28:28.204Z,11.86
2022-10-25T22:31:04.062Z,11.88
2022-10-25T22:33:30.637Z,11.87
2022-10-25T22:36:12.036Z,11.88
2022-10-25T22:38:38.707Z,11.90
2022-10-25T22:41:07.552Z,11.93
2022-10-25T22:43:35.561Z,11.95
2022-10-25T22:46:04.759Z,11.97
2022-10-25T22:48:32.940Z,11.97
2022-10-25T22:50:59.767Z,11.98
2022-10-25T22:53:27.032Z,12.00
2022-10-25T22:55:59.746Z,12.02
2022-10-25T22:58:27.797Z,12.04
2022-10-25T23:03:42.697Z,12.06
2022-10-25T23:06:18.354Z,12.09
2022-10-25T23:08:45.271Z,12.11
2022-10-25T23:11:17.638Z,12.13
2022-10-25T23:13:44.797Z,12.13
2022-10-25T23:16:12.763Z,12.16
2022-10-25T23:18:39.822Z,12.17
2022-10-25T23:21:10.550Z,12.17
2022-10-25T23:23:38.692Z,12.19
2022-10-25T23:28:38.742Z,12.21
2022-10-25T23:31:07.301Z,12.23
2022-10-25T23:33:34.154Z,12.22
2022-10-25T23:36:05.130Z,12.26
2022-10-25T23:38:31.865Z,12.25
2022-10-25T23:40:58.297Z,12.26
2022-10-25T23:43:24.781Z,12.28
2022-10-25T23:45:51.208Z,12.29
2022-10-25T23:48:17.773Z,12.31
2022-10-25T23:50:44.178Z,12.32
2022-10-25T23:53:10.701Z,12.32
2022-10-25T23:55:38.687Z,12.34
2022-10-25T23:58:05.289Z,12.36
